PHX weather

Public forecast

Using degrees Fahrenheit for public forecast. Weather courtesy of forecast.io.

Current aviation weather report (METAR) for Phoenix Sky Harbor International Airport

Retrieved 2020/08/10 09:51 UTC (35 minutes ago):

KPHX 100951Z 29005KT 10SM CLR 34/03 A2980 RMK AO2 SLP069 T03390033

Aviation forecast (TAF) for Phoenix Sky Harbor International Airport

Retrieved 2020/08/10 06:22 UTC (4 hours ago):

TAF KPHX 100520Z 1006/1112 27008KT P6SM SKC FM101100 10005KT P6SM SCT120 FM102000 26008KT P6SM FEW120 FM111100 10005KT P6SM SKC